Cutral-Co, Argentina
Current Conditions -  °F | °C
As of 10:00 PM on Friday 19 Dec 2014 (Local Time) from SAZN Reporting Station
Broken Clouds Broken Clouds  
Wind Chill: 70°   Ceiling: 10000
Heat Index: 70°   Visibility: 6mi
Dew Point: 32°   Wind: 14mph
Humidity: 25%   Direction: 230°SW
Pressure: 29.62"   Gusts: NA
Location:  38.93°S, 69.23°W
Report Text: SAZN 200100Z 23012KT 9999 SCT040 BKN10021/00 Q1003
Loading
Personal Weather Stations






























Interactive Weather Map New forecast layout! Learn more

10-Day Weather Forecast

Advertisements
Track Severe Weather on mobile